sensor_id;sensor_type;location;lat;lon;timestamp;P1;durP1;ratioP1;P2;durP2;ratioP2
20988;SDS011;10653;47.052;15.410;2023-11-21T00:01:04;19.73;;;16.80;;
20988;SDS011;10653;47.052;15.410;2023-11-21T00:03:30;18.40;;;15.87;;
20988;SDS011;10653;47.052;15.410;2023-11-21T00:05:56;17.67;;;15.77;;
20988;SDS011;10653;47.052;15.410;2023-11-21T00:08:22;18.43;;;14.93;;
20988;SDS011;10653;47.052;15.410;2023-11-21T00:10:48;17.47;;;14.40;;
20988;SDS011;10653;47.052;15.410;2023-11-21T00:13:16;17.70;;;15.47;;
20988;SDS011;10653;47.052;15.410;2023-11-21T00:15:42;19.57;;;15.63;;
20988;SDS011;10653;47.052;15.410;2023-11-21T00:18:09;18.00;;;15.27;;
20988;SDS011;10653;47.052;15.410;2023-11-21T00:20:35;14.57;;;13.03;;
20988;SDS011;10653;47.052;15.410;2023-11-21T00:23:01;19.97;;;14.87;;
20988;SDS011;10653;47.052;15.410;2023-11-21T00:25:27;15.93;;;13.73;;
20988;SDS011;10653;47.052;15.410;2023-11-21T00:27:53;19.33;;;14.67;;
20988;SDS011;10653;47.052;15.410;2023-11-21T00:30:19;17.90;;;15.50;;
20988;SDS011;10653;47.052;15.410;2023-11-21T00:32:47;16.77;;;14.50;;
20988;SDS011;10653;47.052;15.410;2023-11-21T00:35:13;17.20;;;14.63;;
20988;SDS011;10653;47.052;15.410;2023-11-21T00:37:39;17.50;;;14.87;;
20988;SDS011;10653;47.052;15.410;2023-11-21T00:40:05;18.60;;;15.80;;
20988;SDS011;10653;47.052;15.410;2023-11-21T00:42:32;19.10;;;16.20;;
20988;SDS011;10653;47.052;15.410;2023-11-21T00:44:59;18.40;;;16.30;;
20988;SDS011;10653;47.052;15.410;2023-11-21T00:47:25;19.33;;;17.23;;
20988;SDS011;10653;47.052;15.410;2023-11-21T00:49:51;21.37;;;17.07;;
20988;SDS011;10653;47.052;15.410;2023-11-21T00:52:17;25.40;;;19.73;;
20988;SDS011;10653;47.052;15.410;2023-11-21T00:54:44;23.23;;;20.47;;
20988;SDS011;10653;47.052;15.410;2023-11-21T00:57:10;26.50;;;22.60;;
20988;SDS011;10653;47.052;15.410;2023-11-21T00:59:37;25.67;;;22.40;;
20988;SDS011;10653;47.052;15.410;2023-11-21T01:02:03;28.03;;;23.03;;
20988;SDS011;10653;47.052;15.410;2023-11-21T01:04:30;25.17;;;22.47;;
20988;SDS011;10653;47.052;15.410;2023-11-21T01:06:57;28.63;;;23.80;;
20988;SDS011;10653;47.052;15.410;2023-11-21T01:09:23;26.80;;;24.00;;
20988;SDS011;10653;47.052;15.410;2023-11-21T01:11:49;26.43;;;23.60;;
20988;SDS011;10653;47.052;15.410;2023-11-21T01:14:16;29.33;;;23.07;;
20988;SDS011;10653;47.052;15.410;2023-11-21T01:16:43;25.27;;;22.40;;
20988;SDS011;10653;47.052;15.410;2023-11-21T01:19:08;30.23;;;23.77;;
20988;SDS011;10653;47.052;15.410;2023-11-21T01:21:34;26.37;;;21.63;;
20988;SDS011;10653;47.052;15.410;2023-11-21T01:24:00;24.00;;;21.30;;
20988;SDS011;10653;47.052;15.410;2023-11-21T01:26:27;26.10;;;22.57;;
20988;SDS011;10653;47.052;15.410;2023-11-21T01:28:53;24.50;;;21.47;;
20988;SDS011;10653;47.052;15.410;2023-11-21T01:31:19;26.20;;;21.50;;
20988;SDS011;10653;47.052;15.410;2023-11-21T01:33:45;23.77;;;21.03;;
20988;SDS011;10653;47.052;15.410;2023-11-21T01:36:12;26.50;;;21.67;;
20988;SDS011;10653;47.052;15.410;2023-11-21T01:38:38;23.80;;;21.10;;
20988;SDS011;10653;47.052;15.410;2023-11-21T01:41:04;22.73;;;20.20;;
20988;SDS011;10653;47.052;15.410;2023-11-21T01:43:31;23.43;;;20.93;;
20988;SDS011;10653;47.052;15.410;2023-11-21T01:45:57;22.57;;;19.87;;
20988;SDS011;10653;47.052;15.410;2023-11-21T01:48:24;24.10;;;20.00;;
20988;SDS011;10653;47.052;15.410;2023-11-21T01:50:50;32.10;;;22.07;;
20988;SDS011;10653;47.052;15.410;2023-11-21T01:53:17;22.20;;;19.20;;
20988;SDS011;10653;47.052;15.410;2023-11-21T01:55:43;27.67;;;21.47;;
20988;SDS011;10653;47.052;15.410;2023-11-21T01:58:10;23.13;;;20.20;;
20988;SDS011;10653;47.052;15.410;2023-11-21T02:00:41;21.27;;;18.53;;
20988;SDS011;10653;47.052;15.410;2023-11-21T02:03:08;21.57;;;17.17;;
20988;SDS011;10653;47.052;15.410;2023-11-21T02:05:35;21.53;;;19.20;;
20988;SDS011;10653;47.052;15.410;2023-11-21T02:08:01;22.50;;;19.53;;
20988;SDS011;10653;47.052;15.410;2023-11-21T02:10:28;19.30;;;16.57;;
20988;SDS011;10653;47.052;15.410;2023-11-21T02:12:56;17.80;;;15.97;;
20988;SDS011;10653;47.052;15.410;2023-11-21T02:15:23;17.70;;;15.77;;
20988;SDS011;10653;47.052;15.410;2023-11-21T02:17:53;16.03;;;14.33;;
20988;SDS011;10653;47.052;15.410;2023-11-21T02:20:23;20.47;;;14.20;;
20988;SDS011;10653;47.052;15.410;2023-11-21T02:22:53;15.07;;;13.47;;
20988;SDS011;10653;47.052;15.410;2023-11-21T02:25:26;16.77;;;14.53;;
20988;SDS011;10653;47.052;15.410;2023-11-21T02:27:58;20.23;;;14.83;;
20988;SDS011;10653;47.052;15.410;2023-11-21T02:30:24;17.20;;;14.10;;
20988;SDS011;10653;47.052;15.410;2023-11-21T02:32:52;14.30;;;12.80;;
20988;SDS011;10653;47.052;15.410;2023-11-21T02:35:18;16.40;;;12.37;;
20988;SDS011;10653;47.052;15.410;2023-11-21T02:37:48;14.10;;;11.60;;
20988;SDS011;10653;47.052;15.410;2023-11-21T02:40:14;12.03;;;9.97;;
20988;SDS011;10653;47.052;15.410;2023-11-21T02:42:43;11.63;;;9.10;;
20988;SDS011;10653;47.052;15.410;2023-11-21T02:45:09;10.63;;;8.87;;
20988;SDS011;10653;47.052;15.410;2023-11-21T02:47:38;11.40;;;10.17;;
20988;SDS011;10653;47.052;15.410;2023-11-21T02:50:04;12.13;;;10.83;;
20988;SDS011;10653;47.052;15.410;2023-11-21T02:52:32;12.97;;;11.60;;
20988;SDS011;10653;47.052;15.410;2023-11-21T02:54:58;14.43;;;11.60;;
20988;SDS011;10653;47.052;15.410;2023-11-21T02:57:24;11.87;;;10.67;;
20988;SDS011;10653;47.052;15.410;2023-11-21T02:59:50;9.67;;;8.77;;
20988;SDS011;10653;47.052;15.410;2023-11-21T03:02:16;13.10;;;11.10;;
20988;SDS011;10653;47.052;15.410;2023-11-21T03:04:42;12.20;;;10.40;;
20988;SDS011;10653;47.052;15.410;2023-11-21T03:07:09;13.07;;;10.27;;
20988;SDS011;10653;47.052;15.410;2023-11-21T03:09:35;11.13;;;10.00;;
20988;SDS011;10653;47.052;15.410;2023-11-21T03:12:01;10.83;;;9.37;;
20988;SDS011;10653;47.052;15.410;2023-11-21T03:14:27;10.27;;;9.17;;
20988;SDS011;10653;47.052;15.410;2023-11-21T03:16:53;12.90;;;9.80;;
20988;SDS011;10653;47.052;15.410;2023-11-21T03:19:19;8.87;;;7.90;;
20988;SDS011;10653;47.052;15.410;2023-11-21T03:21:45;10.30;;;8.97;;
20988;SDS011;10653;47.052;15.410;2023-11-21T03:24:11;10.27;;;9.23;;
20988;SDS011;10653;47.052;15.410;2023-11-21T03:26:37;11.10;;;10.00;;
20988;SDS011;10653;47.052;15.410;2023-11-21T03:29:03;9.33;;;8.53;;
20988;SDS011;10653;47.052;15.410;2023-11-21T03:31:30;9.70;;;8.70;;
20988;SDS011;10653;47.052;15.410;2023-11-21T03:33:56;8.90;;;8.00;;
20988;SDS011;10653;47.052;15.410;2023-11-21T03:36:22;8.90;;;7.67;;
20988;SDS011;10653;47.052;15.410;2023-11-21T03:38:50;10.23;;;8.53;;
20988;SDS011;10653;47.052;15.410;2023-11-21T03:41:16;11.50;;;10.30;;
20988;SDS011;10653;47.052;15.410;2023-11-21T03:43:42;10.20;;;9.20;;
20988;SDS011;10653;47.052;15.410;2023-11-21T03:46:08;13.17;;;11.60;;
20988;SDS011;10653;47.052;15.410;2023-11-21T03:48:35;9.20;;;8.27;;
20988;SDS011;10653;47.052;15.410;2023-11-21T03:51:01;8.73;;;7.63;;
20988;SDS011;10653;47.052;15.410;2023-11-21T03:53:27;9.40;;;8.40;;
20988;SDS011;10653;47.052;15.410;2023-11-21T03:55:53;9.33;;;8.00;;
20988;SDS011;10653;47.052;15.410;2023-11-21T03:58:19;9.73;;;7.40;;
20988;SDS011;10653;47.052;15.410;2023-11-21T04:00:46;7.57;;;6.60;;
20988;SDS011;10653;47.052;15.410;2023-11-21T04:03:13;9.50;;;7.53;;
20988;SDS011;10653;47.052;15.410;2023-11-21T04:05:40;9.30;;;8.33;;
20988;SDS011;10653;47.052;15.410;2023-11-21T04:08:06;12.50;;;7.20;;
20988;SDS011;10653;47.052;15.410;2023-11-21T04:10:32;9.33;;;7.80;;
20988;SDS011;10653;47.052;15.410;2023-11-21T04:12:58;9.90;;;6.90;;
20988;SDS011;10653;47.052;15.410;2023-11-21T04:15:25;9.50;;;6.57;;
20988;SDS011;10653;47.052;15.410;2023-11-21T04:17:51;7.03;;;6.33;;
20988;SDS011;10653;47.052;15.410;2023-11-21T04:20:17;7.40;;;5.93;;
20988;SDS011;10653;47.052;15.410;2023-11-21T04:22:44;7.37;;;6.20;;
20988;SDS011;10653;47.052;15.410;2023-11-21T04:25:10;7.50;;;6.70;;
20988;SDS011;10653;47.052;15.410;2023-11-21T04:27:36;8.23;;;6.80;;
20988;SDS011;10653;47.052;15.410;2023-11-21T04:30:02;6.60;;;6.00;;
20988;SDS011;10653;47.052;15.410;2023-11-21T04:32:28;9.27;;;6.70;;
20988;SDS011;10653;47.052;15.410;2023-11-21T04:34:54;7.53;;;6.70;;
20988;SDS011;10653;47.052;15.410;2023-11-21T04:37:20;10.87;;;7.33;;
20988;SDS011;10653;47.052;15.410;2023-11-21T04:39:47;8.47;;;7.47;;
20988;SDS011;10653;47.052;15.410;2023-11-21T04:42:14;8.60;;;7.70;;
20988;SDS011;10653;47.052;15.410;2023-11-21T04:44:40;11.77;;;8.50;;
20988;SDS011;10653;47.052;15.410;2023-11-21T04:47:06;9.80;;;8.80;;
20988;SDS011;10653;47.052;15.410;2023-11-21T04:49:32;10.20;;;7.40;;
20988;SDS011;10653;47.052;15.410;2023-11-21T04:51:59;9.20;;;7.63;;
20988;SDS011;10653;47.052;15.410;2023-11-21T04:54:26;8.20;;;7.40;;
20988;SDS011;10653;47.052;15.410;2023-11-21T04:56:52;9.30;;;7.73;;
20988;SDS011;10653;47.052;15.410;2023-11-21T04:59:18;7.70;;;7.00;;
20988;SDS011;10653;47.052;15.410;2023-11-21T05:01:44;13.63;;;11.20;;
20988;SDS011;10653;47.052;15.410;2023-11-21T05:04:10;10.17;;;9.17;;
20988;SDS011;10653;47.052;15.410;2023-11-21T05:06:36;10.27;;;9.20;;
20988;SDS011;10653;47.052;15.410;2023-11-21T05:09:02;8.93;;;8.07;;
20988;SDS011;10653;47.052;15.410;2023-11-21T05:11:28;9.70;;;8.83;;
20988;SDS011;10653;47.052;15.410;2023-11-21T05:13:54;8.80;;;8.00;;
20988;SDS011;10653;47.052;15.410;2023-11-21T05:16:22;11.00;;;9.20;;
20988;SDS011;10653;47.052;15.410;2023-11-21T05:18:48;9.57;;;8.13;;
20988;SDS011;10653;47.052;15.410;2023-11-21T05:21:15;9.03;;;8.00;;
20988;SDS011;10653;47.052;15.410;2023-11-21T05:23:41;9.50;;;8.47;;
20988;SDS011;10653;47.052;15.410;2023-11-21T05:26:07;9.40;;;8.40;;
20988;SDS011;10653;47.052;15.410;2023-11-21T05:28:33;8.40;;;7.60;;
20988;SDS011;10653;47.052;15.410;2023-11-21T05:30:59;8.90;;;8.00;;
20988;SDS011;10653;47.052;15.410;2023-11-21T05:33:25;10.30;;;9.30;;
20988;SDS011;10653;47.052;15.410;2023-11-21T05:35:51;25.20;;;20.20;;
20988;SDS011;10653;47.052;15.410;2023-11-21T05:38:17;19.97;;;17.83;;
20988;SDS011;10653;47.052;15.410;2023-11-21T05:40:43;17.73;;;14.10;;
20988;SDS011;10653;47.052;15.410;2023-11-21T05:43:09;16.50;;;14.10;;
20988;SDS011;10653;47.052;15.410;2023-11-21T05:45:35;17.30;;;14.37;;
20988;SDS011;10653;47.052;15.410;2023-11-21T05:48:02;17.60;;;15.47;;
20988;SDS011;10653;47.052;15.410;2023-11-21T05:50:29;16.23;;;14.53;;
20988;SDS011;10653;47.052;15.410;2023-11-21T05:52:56;17.50;;;15.60;;
20988;SDS011;10653;47.052;15.410;2023-11-21T05:55:24;16.87;;;15.10;;
20988;SDS011;10653;47.052;15.410;2023-11-21T05:57:50;17.80;;;14.53;;
20988;SDS011;10653;47.052;15.410;2023-11-21T06:00:17;17.90;;;14.37;;
20988;SDS011;10653;47.052;15.410;2023-11-21T06:02:50;16.67;;;14.70;;
20988;SDS011;10653;47.052;15.410;2023-11-21T06:05:18;17.93;;;16.03;;
20988;SDS011;10653;47.052;15.410;2023-11-21T06:07:44;15.90;;;14.27;;
20988;SDS011;10653;47.052;15.410;2023-11-21T06:10:11;17.33;;;14.90;;
20988;SDS011;10653;47.052;15.410;2023-11-21T06:12:39;17.77;;;14.90;;
20988;SDS011;10653;47.052;15.410;2023-11-21T06:15:07;18.63;;;14.20;;
20988;SDS011;10653;47.052;15.410;2023-11-21T06:17:34;16.20;;;14.30;;
20988;SDS011;10653;47.052;15.410;2023-11-21T06:20:04;16.03;;;13.13;;
20988;SDS011;10653;47.052;15.410;2023-11-21T06:22:34;19.30;;;13.80;;
20988;SDS011;10653;47.052;15.410;2023-11-21T06:25:01;17.80;;;15.10;;
20988;SDS011;10653;47.052;15.410;2023-11-21T06:27:28;18.30;;;14.97;;
20988;SDS011;10653;47.052;15.410;2023-11-21T06:29:54;15.30;;;13.70;;
20988;SDS011;10653;47.052;15.410;2023-11-21T06:32:21;14.43;;;12.90;;
20988;SDS011;10653;47.052;15.410;2023-11-21T06:34:47;15.90;;;14.23;;
20988;SDS011;10653;47.052;15.410;2023-11-21T06:37:14;18.70;;;14.67;;
20988;SDS011;10653;47.052;15.410;2023-11-21T06:39:41;19.57;;;13.80;;
20988;SDS011;10653;47.052;15.410;2023-11-21T06:42:07;15.20;;;13.70;;
20988;SDS011;10653;47.052;15.410;2023-11-21T06:44:33;18.80;;;15.37;;
20988;SDS011;10653;47.052;15.410;2023-11-21T06:47:00;16.80;;;15.00;;
20988;SDS011;10653;47.052;15.410;2023-11-21T06:49:26;17.00;;;14.40;;
20988;SDS011;10653;47.052;15.410;2023-11-21T06:51:52;17.03;;;15.23;;
20988;SDS011;10653;47.052;15.410;2023-11-21T06:54:20;16.67;;;14.93;;
20988;SDS011;10653;47.052;15.410;2023-11-21T06:56:46;19.27;;;17.07;;
20988;SDS011;10653;47.052;15.410;2023-11-21T06:59:12;19.30;;;17.23;;
20988;SDS011;10653;47.052;15.410;2023-11-21T07:01:38;23.60;;;16.50;;
20988;SDS011;10653;47.052;15.410;2023-11-21T07:04:06;17.97;;;16.07;;
20988;SDS011;10653;47.052;15.410;2023-11-21T07:06:33;19.17;;;14.80;;
20988;SDS011;10653;47.052;15.410;2023-11-21T07:08:59;16.70;;;14.60;;
20988;SDS011;10653;47.052;15.410;2023-11-21T07:11:26;17.10;;;15.30;;
20988;SDS011;10653;47.052;15.410;2023-11-21T07:13:52;18.53;;;14.07;;
20988;SDS011;10653;47.052;15.410;2023-11-21T07:16:18;16.63;;;13.50;;
20988;SDS011;10653;47.052;15.410;2023-11-21T07:18:44;19.47;;;15.03;;
20988;SDS011;10653;47.052;15.410;2023-11-21T07:21:11;16.70;;;13.40;;
20988;SDS011;10653;47.052;15.410;2023-11-21T07:23:37;17.93;;;14.07;;
20988;SDS011;10653;47.052;15.410;2023-11-21T07:26:03;19.40;;;15.00;;
20988;SDS011;10653;47.052;15.410;2023-11-21T07:28:34;15.20;;;13.70;;
20988;SDS011;10653;47.052;15.410;2023-11-21T07:31:00;18.37;;;14.50;;
20988;SDS011;10653;47.052;15.410;2023-11-21T07:33:26;18.00;;;14.50;;
20988;SDS011;10653;47.052;15.410;2023-11-21T07:35:52;18.43;;;15.23;;
20988;SDS011;10653;47.052;15.410;2023-11-21T07:38:18;15.70;;;14.10;;
20988;SDS011;10653;47.052;15.410;2023-11-21T07:40:44;16.83;;;13.23;;
20988;SDS011;10653;47.052;15.410;2023-11-21T07:43:10;16.13;;;12.93;;
20988;SDS011;10653;47.052;15.410;2023-11-21T07:45:36;14.20;;;12.80;;
20988;SDS011;10653;47.052;15.410;2023-11-21T07:48:02;16.97;;;13.87;;
20988;SDS011;10653;47.052;15.410;2023-11-21T07:50:30;18.30;;;15.03;;
20988;SDS011;10653;47.052;15.410;2023-11-21T07:52:56;17.50;;;14.77;;
20988;SDS011;10653;47.052;15.410;2023-11-21T07:55:23;16.73;;;14.07;;
20988;SDS011;10653;47.052;15.410;2023-11-21T07:57:50;16.00;;;14.40;;
20988;SDS011;10653;47.052;15.410;2023-11-21T08:00:16;16.17;;;12.97;;
20988;SDS011;10653;47.052;15.410;2023-11-21T08:02:42;14.93;;;12.37;;
20988;SDS011;10653;47.052;15.410;2023-11-21T08:05:10;14.43;;;13.03;;
20988;SDS011;10653;47.052;15.410;2023-11-21T08:07:37;14.47;;;11.90;;
20988;SDS011;10653;47.052;15.410;2023-11-21T08:10:03;12.83;;;11.43;;
20988;SDS011;10653;47.052;15.410;2023-11-21T08:12:32;14.40;;;11.37;;
20988;SDS011;10653;47.052;15.410;2023-11-21T08:14:58;14.57;;;11.67;;
20988;SDS011;10653;47.052;15.410;2023-11-21T08:17:25;11.60;;;10.27;;
20988;SDS011;10653;47.052;15.410;2023-11-21T08:19:51;12.10;;;10.00;;
20988;SDS011;10653;47.052;15.410;2023-11-21T08:22:17;8.53;;;7.70;;
20988;SDS011;10653;47.052;15.410;2023-11-21T08:24:43;12.13;;;10.33;;
20988;SDS011;10653;47.052;15.410;2023-11-21T08:27:11;10.80;;;9.50;;
20988;SDS011;10653;47.052;15.410;2023-11-21T08:29:40;14.43;;;9.10;;
20988;SDS011;10653;47.052;15.410;2023-11-21T08:32:07;11.60;;;8.37;;
20988;SDS011;10653;47.052;15.410;2023-11-21T08:34:33;12.47;;;10.20;;
20988;SDS011;10653;47.052;15.410;2023-11-21T08:36:59;14.67;;;11.90;;
20988;SDS011;10653;47.052;15.410;2023-11-21T08:39:25;13.57;;;12.00;;
20988;SDS011;10653;47.052;15.410;2023-11-21T08:41:51;27.93;;;17.57;;
20988;SDS011;10653;47.052;15.410;2023-11-21T08:44:17;39.90;;;30.90;;
20988;SDS011;10653;47.052;15.410;2023-11-21T08:46:44;48.73;;;37.97;;
20988;SDS011;10653;47.052;15.410;2023-11-21T08:49:11;51.70;;;41.47;;
20988;SDS011;10653;47.052;15.410;2023-11-21T08:51:38;49.47;;;38.63;;
20988;SDS011;10653;47.052;15.410;2023-11-21T08:54:04;44.30;;;34.90;;
20988;SDS011;10653;47.052;15.410;2023-11-21T08:56:33;42.07;;;31.67;;
20988;SDS011;10653;47.052;15.410;2023-11-21T08:58:59;38.03;;;31.80;;
20988;SDS011;10653;47.052;15.410;2023-11-21T09:01:31;31.20;;;27.03;;
20988;SDS011;10653;47.052;15.410;2023-11-21T09:03:57;27.73;;;24.40;;
20988;SDS011;10653;47.052;15.410;2023-11-21T09:06:24;43.37;;;32.40;;
20988;SDS011;10653;47.052;15.410;2023-11-21T09:08:50;36.40;;;29.27;;
20988;SDS011;10653;47.052;15.410;2023-11-21T09:11:16;34.33;;;30.50;;
20988;SDS011;10653;47.052;15.410;2023-11-21T09:13:42;36.80;;;27.77;;
20988;SDS011;10653;47.052;15.410;2023-11-21T09:16:09;32.60;;;25.83;;
20988;SDS011;10653;47.052;15.410;2023-11-21T09:18:35;32.27;;;27.17;;
20988;SDS011;10653;47.052;15.410;2023-11-21T09:21:01;33.23;;;28.97;;
20988;SDS011;10653;47.052;15.410;2023-11-21T09:23:29;28.90;;;25.80;;
20988;SDS011;10653;47.052;15.410;2023-11-21T09:25:55;29.47;;;25.37;;
20988;SDS011;10653;47.052;15.410;2023-11-21T09:28:22;29.53;;;25.53;;
20988;SDS011;10653;47.052;15.410;2023-11-21T09:30:48;31.10;;;24.87;;
20988;SDS011;10653;47.052;15.410;2023-11-21T09:33:15;28.53;;;24.53;;
20988;SDS011;10653;47.052;15.410;2023-11-21T09:35:41;30.20;;;26.40;;
20988;SDS011;10653;47.052;15.410;2023-11-21T09:38:09;31.70;;;27.80;;
20988;SDS011;10653;47.052;15.410;2023-11-21T09:40:36;26.90;;;23.60;;
20988;SDS011;10653;47.052;15.410;2023-11-21T09:43:04;28.63;;;24.17;;
20988;SDS011;10653;47.052;15.410;2023-11-21T09:45:34;29.53;;;22.57;;
20988;SDS011;10653;47.052;15.410;2023-11-21T09:48:01;24.90;;;19.30;;
20988;SDS011;10653;47.052;15.410;2023-11-21T09:50:27;20.40;;;17.80;;
20988;SDS011;10653;47.052;15.410;2023-11-21T09:55:44;27.23;;;21.33;;
20988;SDS011;10653;47.052;15.410;2023-11-21T09:58:11;23.57;;;18.47;;
20988;SDS011;10653;47.052;15.410;2023-11-21T10:00:47;22.57;;;19.13;;
20988;SDS011;10653;47.052;15.410;2023-11-21T10:03:13;24.63;;;18.97;;
20988;SDS011;10653;47.052;15.410;2023-11-21T10:05:40;21.30;;;17.83;;
20988;SDS011;10653;47.052;15.410;2023-11-21T10:08:08;18.27;;;16.47;;
20988;SDS011;10653;47.052;15.410;2023-11-21T10:10:35;17.10;;;13.50;;
20988;SDS011;10653;47.052;15.410;2023-11-21T10:13:02;18.63;;;15.17;;
20988;SDS011;10653;47.052;15.410;2023-11-21T10:15:32;21.03;;;14.40;;
20988;SDS011;10653;47.052;15.410;2023-11-21T10:17:59;14.03;;;12.53;;
20988;SDS011;10653;47.052;15.410;2023-11-21T10:20:28;15.87;;;11.37;;
20988;SDS011;10653;47.052;15.410;2023-11-21T10:22:54;12.43;;;10.00;;
20988;SDS011;10653;47.052;15.410;2023-11-21T10:25:23;10.27;;;9.17;;
20988;SDS011;10653;47.052;15.410;2023-11-21T10:27:50;9.63;;;8.63;;
20988;SDS011;10653;47.052;15.410;2023-11-21T10:30:22;9.17;;;7.90;;
20988;SDS011;10653;47.052;15.410;2023-11-21T10:32:50;7.90;;;7.10;;
20988;SDS011;10653;47.052;15.410;2023-11-21T10:35:16;7.17;;;6.47;;
20988;SDS011;10653;47.052;15.410;2023-11-21T10:37:42;10.70;;;7.10;;
20988;SDS011;10653;47.052;15.410;2023-11-21T10:40:09;9.83;;;7.53;;
20988;SDS011;10653;47.052;15.410;2023-11-21T10:42:38;8.37;;;7.57;;
20988;SDS011;10653;47.052;15.410;2023-11-21T10:45:05;7.80;;;7.10;;
20988;SDS011;10653;47.052;15.410;2023-11-21T10:47:38;9.37;;;8.47;;
20988;SDS011;10653;47.052;15.410;2023-11-21T10:50:05;11.17;;;8.87;;
20988;SDS011;10653;47.052;15.410;2023-11-21T10:52:34;8.90;;;8.10;;
20988;SDS011;10653;47.052;15.410;2023-11-21T10:55:01;11.13;;;7.90;;
20988;SDS011;10653;47.052;15.410;2023-11-21T10:57:28;9.13;;;7.60;;
20988;SDS011;10653;47.052;15.410;2023-11-21T10:59:55;9.43;;;8.63;;
20988;SDS011;10653;47.052;15.410;2023-11-21T11:02:23;8.30;;;7.53;;
20988;SDS011;10653;47.052;15.410;2023-11-21T11:04:53;9.80;;;8.20;;
20988;SDS011;10653;47.052;15.410;2023-11-21T11:07:21;8.90;;;8.00;;
20988;SDS011;10653;47.052;15.410;2023-11-21T11:09:47;8.47;;;7.70;;
20988;SDS011;10653;47.052;15.410;2023-11-21T11:12:13;10.30;;;7.40;;
20988;SDS011;10653;47.052;15.410;2023-11-21T11:14:40;7.20;;;6.50;;
20988;SDS011;10653;47.052;15.410;2023-11-21T11:17:08;7.03;;;5.53;;
20988;SDS011;10653;47.052;15.410;2023-11-21T11:19:35;7.00;;;5.07;;
20988;SDS011;10653;47.052;15.410;2023-11-21T11:30:04;6.87;;;6.20;;
20988;SDS011;10653;47.052;15.410;2023-11-21T11:35:19;9.80;;;6.53;;
20988;SDS011;10653;47.052;15.410;2023-11-21T11:37:47;7.73;;;6.80;;
20988;SDS011;10653;47.052;15.410;2023-11-21T11:40:13;8.80;;;7.07;;
20988;SDS011;10653;47.052;15.410;2023-11-21T11:42:54;8.50;;;7.57;;
20988;SDS011;10653;47.052;15.410;2023-11-21T11:45:21;10.33;;;6.27;;
20988;SDS011;10653;47.052;15.410;2023-11-21T11:47:48;8.03;;;6.00;;
20988;SDS011;10653;47.052;15.410;2023-11-21T11:50:14;6.77;;;6.17;;
20988;SDS011;10653;47.052;15.410;2023-11-21T11:52:51;7.50;;;6.20;;
20988;SDS011;10653;47.052;15.410;2023-11-21T11:55:18;7.10;;;5.77;;
20988;SDS011;10653;47.052;15.410;2023-11-21T11:57:46;8.30;;;6.30;;
20988;SDS011;10653;47.052;15.410;2023-11-21T12:02:41;8.83;;;6.10;;
20988;SDS011;10653;47.052;15.410;2023-11-21T12:05:11;9.20;;;7.27;;
20988;SDS011;10653;47.052;15.410;2023-11-21T12:07:44;6.50;;;5.90;;
20988;SDS011;10653;47.052;15.410;2023-11-21T12:10:16;9.10;;;8.20;;
20988;SDS011;10653;47.052;15.410;2023-11-21T12:12:47;9.37;;;7.67;;
20988;SDS011;10653;47.052;15.410;2023-11-21T12:15:13;8.10;;;7.30;;
20988;SDS011;10653;47.052;15.410;2023-11-21T12:17:43;9.87;;;7.37;;
20988;SDS011;10653;47.052;15.410;2023-11-21T12:20:09;7.90;;;7.20;;
20988;SDS011;10653;47.052;15.410;2023-11-21T12:22:52;8.70;;;7.90;;
20988;SDS011;10653;47.052;15.410;2023-11-21T12:27:47;8.90;;;7.77;;
20988;SDS011;10653;47.052;15.410;2023-11-21T12:30:17;8.47;;;7.60;;
20988;SDS011;10653;47.052;15.410;2023-11-21T12:32:44;9.57;;;7.87;;
20988;SDS011;10653;47.052;15.410;2023-11-21T12:35:13;10.10;;;8.00;;
20988;SDS011;10653;47.052;15.410;2023-11-21T12:37:40;8.07;;;7.27;;
20988;SDS011;10653;47.052;15.410;2023-11-21T12:40:10;8.03;;;7.27;;
20988;SDS011;10653;47.052;15.410;2023-11-21T12:42:53;8.13;;;7.20;;
20988;SDS011;10653;47.052;15.410;2023-11-21T12:45:20;8.17;;;7.37;;
20988;SDS011;10653;47.052;15.410;2023-11-21T12:47:50;8.67;;;7.80;;
20988;SDS011;10653;47.052;15.410;2023-11-21T12:50:20;7.60;;;6.80;;
20988;SDS011;10653;47.052;15.410;2023-11-21T12:52:48;8.43;;;6.73;;
20988;SDS011;10653;47.052;15.410;2023-11-21T12:55:15;7.67;;;6.87;;
20988;SDS011;10653;47.052;15.410;2023-11-21T12:57:42;7.60;;;6.80;;
20988;SDS011;10653;47.052;15.410;2023-11-21T13:00:09;8.70;;;6.87;;
20988;SDS011;10653;47.052;15.410;2023-11-21T13:02:40;7.90;;;6.70;;
20988;SDS011;10653;47.052;15.410;2023-11-21T13:05:08;8.00;;;7.27;;
20988;SDS011;10653;47.052;15.410;2023-11-21T13:07:46;6.93;;;6.27;;
20988;SDS011;10653;47.052;15.410;2023-11-21T13:10:13;10.90;;;7.20;;
20988;SDS011;10653;47.052;15.410;2023-11-21T13:12:43;9.60;;;8.13;;
20988;SDS011;10653;47.052;15.410;2023-11-21T13:15:13;9.77;;;7.83;;
20988;SDS011;10653;47.052;15.410;2023-11-21T13:17:43;8.37;;;7.47;;
20988;SDS011;10653;47.052;15.410;2023-11-21T13:20:12;10.13;;;8.30;;
20988;SDS011;10653;47.052;15.410;2023-11-21T13:22:45;9.67;;;7.80;;
20988;SDS011;10653;47.052;15.410;2023-11-21T13:25:11;10.23;;;7.60;;
20988;SDS011;10653;47.052;15.410;2023-11-21T13:27:39;9.93;;;7.20;;
20988;SDS011;10653;47.052;15.410;2023-11-21T13:30:08;11.00;;;8.20;;
20988;SDS011;10653;47.052;15.410;2023-11-21T13:32:34;13.70;;;8.43;;
20988;SDS011;10653;47.052;15.410;2023-11-21T13:35:00;9.13;;;8.30;;
20988;SDS011;10653;47.052;15.410;2023-11-21T13:37:26;11.87;;;9.13;;
20988;SDS011;10653;47.052;15.410;2023-11-21T13:39:53;9.20;;;7.60;;
20988;SDS011;10653;47.052;15.410;2023-11-21T13:42:21;8.70;;;7.80;;
20988;SDS011;10653;47.052;15.410;2023-11-21T13:44:55;9.67;;;8.67;;
20988;SDS011;10653;47.052;15.410;2023-11-21T13:47:21;9.87;;;7.63;;
20988;SDS011;10653;47.052;15.410;2023-11-21T13:49:50;9.80;;;8.40;;
20988;SDS011;10653;47.052;15.410;2023-11-21T13:52:16;9.60;;;8.00;;
20988;SDS011;10653;47.052;15.410;2023-11-21T13:54:45;9.33;;;8.27;;
20988;SDS011;10653;47.052;15.410;2023-11-21T13:57:12;9.30;;;8.40;;
20988;SDS011;10653;47.052;15.410;2023-11-21T13:59:38;11.67;;;8.57;;
20988;SDS011;10653;47.052;15.410;2023-11-21T14:02:04;10.03;;;7.97;;
20988;SDS011;10653;47.052;15.410;2023-11-21T14:04:44;10.00;;;7.70;;
20988;SDS011;10653;47.052;15.410;2023-11-21T14:07:21;9.83;;;8.83;;
20988;SDS011;10653;47.052;15.410;2023-11-21T14:09:57;9.10;;;8.20;;
20988;SDS011;10653;47.052;15.410;2023-11-21T14:12:23;15.20;;;9.03;;
20988;SDS011;10653;47.052;15.410;2023-11-21T14:14:49;14.50;;;9.70;;
20988;SDS011;10653;47.052;15.410;2023-11-21T14:17:15;10.30;;;8.87;;
20988;SDS011;10653;47.052;15.410;2023-11-21T14:19:41;10.80;;;7.60;;
20988;SDS011;10653;47.052;15.410;2023-11-21T14:22:11;10.03;;;8.67;;
20988;SDS011;10653;47.052;15.410;2023-11-21T14:24:37;11.93;;;9.50;;
20988;SDS011;10653;47.052;15.410;2023-11-21T14:27:08;12.93;;;9.77;;
20988;SDS011;10653;47.052;15.410;2023-11-21T14:29:35;11.60;;;9.60;;
20988;SDS011;10653;47.052;15.410;2023-11-21T14:32:04;10.23;;;9.00;;
20988;SDS011;10653;47.052;15.410;2023-11-21T14:34:30;9.87;;;8.87;;
20988;SDS011;10653;47.052;15.410;2023-11-21T14:36:56;9.67;;;8.70;;